createdAt,value
2023-07-18T00:01:04.679Z,2.70
2023-07-18T00:03:31.176Z,4.07
2023-07-18T00:05:57.589Z,3.97
2023-07-18T00:08:23.987Z,3.88
2023-07-18T00:10:50.399Z,6.25
2023-07-18T00:13:16.794Z,3.03
2023-07-18T00:15:43.240Z,3.47
2023-07-18T00:18:09.690Z,4.00
2023-07-18T00:20:36.100Z,4.40
2023-07-18T00:23:02.596Z,3.85
2023-07-18T00:25:29.201Z,5.20
2023-07-18T00:27:55.739Z,4.65
2023-07-18T00:30:22.867Z,3.78
2023-07-18T00:32:49.338Z,4.07
2023-07-18T00:35:16.168Z,4.90
2023-07-18T00:37:43.624Z,3.10
2023-07-18T00:40:11.748Z,3.85
2023-07-18T00:42:38.947Z,5.30
2023-07-18T00:45:06.787Z,4.00
2023-07-18T00:47:34.053Z,4.97
2023-07-18T00:50:00.474Z,2.63
2023-07-18T00:52:26.883Z,4.03
2023-07-18T00:54:53.318Z,3.33
2023-07-18T00:57:19.728Z,3.90
2023-07-18T00:59:46.129Z,3.70
2023-07-18T01:02:12.554Z,2.93
2023-07-18T01:04:38.943Z,4.53
2023-07-18T01:07:05.714Z,3.70
2023-07-18T01:09:32.177Z,4.20
2023-07-18T01:11:58.595Z,4.60
2023-07-18T01:14:24.969Z,4.00
2023-07-18T01:16:52.820Z,4.90
2023-07-18T01:19:19.272Z,4.18
2023-07-18T01:21:45.764Z,4.97
2023-07-18T01:24:12.138Z,4.63
2023-07-18T01:26:38.525Z,4.50
2023-07-18T01:29:05.005Z,4.07
2023-07-18T01:31:31.461Z,3.38
2023-07-18T01:33:57.851Z,5.10
2023-07-18T01:36:24.281Z,3.90
2023-07-18T01:38:50.659Z,3.80
2023-07-18T01:41:17.175Z,4.43
2023-07-18T01:43:43.638Z,4.35
2023-07-18T01:46:10.024Z,5.20
2023-07-18T01:48:36.418Z,4.43
2023-07-18T01:51:02.795Z,5.23
2023-07-18T01:53:29.231Z,4.53
2023-07-18T01:55:58.662Z,5.85
2023-07-18T01:58:25.045Z,4.22
2023-07-18T02:00:51.531Z,4.35
2023-07-18T02:03:18.044Z,6.17
2023-07-18T02:05:44.430Z,6.82
2023-07-18T02:08:10.810Z,4.72
2023-07-18T02:10:37.200Z,4.45
2023-07-18T02:13:03.591Z,6.10
2023-07-18T02:15:30.460Z,7.47
2023-07-18T02:17:57.212Z,6.10
2023-07-18T02:20:23.652Z,4.18
2023-07-18T02:22:50.167Z,4.40
2023-07-18T02:25:16.828Z,5.15
2023-07-18T02:27:43.285Z,4.93
2023-07-18T02:30:11.347Z,5.40
2023-07-18T02:32:39.049Z,4.22
2023-07-18T02:35:06.881Z,4.88
2023-07-18T02:37:33.336Z,6.70
2023-07-18T02:39:59.739Z,4.33
2023-07-18T02:42:26.121Z,6.55
2023-07-18T02:44:52.506Z,5.05
2023-07-18T02:47:18.983Z,4.57
2023-07-18T02:49:45.386Z,4.70
2023-07-18T02:52:11.766Z,4.73
2023-07-18T02:54:38.149Z,5.13
2023-07-18T02:57:04.805Z,5.50
2023-07-18T02:59:31.201Z,6.53
2023-07-18T03:01:57.630Z,6.20
2023-07-18T03:04:25.176Z,7.90
2023-07-18T03:06:51.619Z,6.13
2023-07-18T03:09:18.501Z,5.95
2023-07-18T03:11:45.209Z,6.28
2023-07-18T03:14:11.819Z,7.80
2023-07-18T03:16:41.638Z,7.43
2023-07-18T03:19:09.556Z,4.95
2023-07-18T03:21:35.940Z,5.00
2023-07-18T03:24:02.361Z,6.57
2023-07-18T03:26:28.771Z,6.35
2023-07-18T03:28:55.555Z,6.13
2023-07-18T03:31:22.398Z,5.43
2023-07-18T03:33:48.899Z,5.20
2023-07-18T03:36:15.329Z,3.58
2023-07-18T03:38:41.779Z,4.28
2023-07-18T03:41:08.188Z,5.50
2023-07-18T03:43:34.661Z,4.20
2023-07-18T03:46:01.120Z,5.10
2023-07-18T03:48:27.760Z,6.07
2023-07-18T03:50:54.215Z,6.53
2023-07-18T03:53:21.056Z,4.70
2023-07-18T03:55:47.450Z,5.35
2023-07-18T03:58:13.848Z,5.85
2023-07-18T04:00:40.275Z,5.30
2023-07-18T04:03:06.685Z,4.15
2023-07-18T04:05:33.225Z,3.73
2023-07-18T04:07:59.625Z,4.50
2023-07-18T04:10:25.991Z,5.57
2023-07-18T04:12:52.483Z,5.18
2023-07-18T04:15:18.880Z,5.25
2023-07-18T04:17:45.445Z,5.70
2023-07-18T04:20:12.101Z,5.32
2023-07-18T04:22:38.654Z,4.60
2023-07-18T04:25:05.497Z,6.03
2023-07-18T04:27:31.874Z,5.03
2023-07-18T04:29:58.225Z,5.50
2023-07-18T04:32:25.317Z,4.78
2023-07-18T04:34:51.713Z,5.57
2023-07-18T04:37:18.094Z,5.65
2023-07-18T04:39:44.483Z,4.18
2023-07-18T04:42:11.506Z,6.43
2023-07-18T04:44:37.899Z,4.65
2023-07-18T04:47:04.623Z,4.85
2023-07-18T04:49:31.048Z,6.40
2023-07-18T04:51:57.407Z,6.60
2023-07-18T04:54:24.072Z,6.13
2023-07-18T04:56:50.438Z,4.95
2023-07-18T04:59:16.849Z,7.70
2023-07-18T05:01:43.288Z,6.30
2023-07-18T05:04:09.817Z,6.82
2023-07-18T05:06:36.218Z,6.73
2023-07-18T05:09:02.596Z,6.90
2023-07-18T05:11:28.967Z,5.40
2023-07-18T05:13:55.368Z,6.90
2023-07-18T05:16:21.842Z,6.10
2023-07-18T05:18:48.274Z,6.47
2023-07-18T05:21:14.636Z,6.43
2023-07-18T05:23:41.058Z,5.22
2023-07-18T05:26:07.439Z,6.13
2023-07-18T05:28:33.850Z,4.50
2023-07-18T05:31:07.352Z,8.03
2023-07-18T05:33:33.759Z,6.72
2023-07-18T05:36:00.147Z,6.70
2023-07-18T05:38:26.523Z,7.13
2023-07-18T05:40:52.945Z,6.38
2023-07-18T05:43:19.359Z,6.90
2023-07-18T05:45:45.876Z,6.63
2023-07-18T05:48:12.354Z,7.68
2023-07-18T05:50:38.779Z,8.70
2023-07-18T05:53:05.153Z,6.82
2023-07-18T05:55:31.564Z,5.43
2023-07-18T05:57:58.010Z,6.38
2023-07-18T06:00:24.481Z,5.38
2023-07-18T06:02:50.884Z,4.75
2023-07-18T06:05:17.314Z,5.35
2023-07-18T06:07:43.695Z,6.73
2023-07-18T06:10:10.436Z,4.85
2023-07-18T06:12:36.823Z,6.63
2023-07-18T06:15:03.280Z,6.15
2023-07-18T06:17:29.742Z,5.63
2023-07-18T06:19:56.325Z,6.50
2023-07-18T06:22:22.788Z,5.65
2023-07-18T06:24:49.157Z,5.25
2023-07-18T06:27:15.550Z,5.85
2023-07-18T06:29:41.941Z,6.10
2023-07-18T06:32:08.720Z,5.33
2023-07-18T06:34:35.097Z,5.63
2023-07-18T06:37:01.504Z,7.40
2023-07-18T06:39:27.920Z,5.97
2023-07-18T06:41:54.285Z,5.95
2023-07-18T06:44:20.656Z,5.67
2023-07-18T06:46:47.080Z,5.57
2023-07-18T06:49:13.501Z,6.00
2023-07-18T06:51:39.938Z,5.95
2023-07-18T06:54:06.318Z,6.72
2023-07-18T06:56:32.701Z,6.47
2023-07-18T06:58:59.092Z,8.32
2023-07-18T07:01:25.543Z,6.70
2023-07-18T07:03:52.015Z,7.47
2023-07-18T07:06:18.445Z,5.40
2023-07-18T07:08:44.851Z,5.80
2023-07-18T07:11:11.269Z,5.45
2023-07-18T07:13:38.235Z,6.75
2023-07-18T07:16:05.298Z,5.13
2023-07-18T07:18:31.898Z,5.35
2023-07-18T07:20:58.524Z,5.30
2023-07-18T07:23:25.021Z,5.28
2023-07-18T07:25:51.538Z,5.93
2023-07-18T07:28:18.034Z,8.77
2023-07-18T07:30:44.471Z,7.63
2023-07-18T07:33:10.859Z,5.37
2023-07-18T07:35:37.247Z,5.78
2023-07-18T07:38:03.682Z,5.47
2023-07-18T07:40:30.060Z,5.50
2023-07-18T07:42:56.434Z,4.40
2023-07-18T07:45:22.857Z,5.90
2023-07-18T07:47:49.395Z,5.10
2023-07-18T07:50:16.326Z,5.13
2023-07-18T07:52:42.847Z,5.55
2023-07-18T07:55:11.295Z,5.75
2023-07-18T07:57:37.815Z,9.20
2023-07-18T08:00:05.028Z,5.60
2023-07-18T08:02:31.466Z,4.78
2023-07-18T08:04:57.925Z,5.88
2023-07-18T08:07:24.386Z,4.72
2023-07-18T08:09:50.775Z,5.93
2023-07-18T08:12:17.150Z,5.90
2023-07-18T08:14:43.539Z,6.35
2023-07-18T08:17:09.921Z,4.88
2023-07-18T08:19:36.294Z,4.88
2023-07-18T08:22:04.542Z,6.30
2023-07-18T08:24:31.337Z,5.88
2023-07-18T08:26:58.701Z,7.82
2023-07-18T08:29:27.201Z,6.20
2023-07-18T08:31:54.127Z,5.20
2023-07-18T08:34:21.664Z,5.20
2023-07-18T08:36:48.250Z,5.30
2023-07-18T08:39:15.653Z,5.43
2023-07-18T08:41:47.734Z,4.68
2023-07-18T08:44:15.100Z,4.85
2023-07-18T08:46:42.226Z,5.43
2023-07-18T08:49:08.718Z,5.13
2023-07-18T08:51:35.132Z,4.70
2023-07-18T08:54:01.609Z,4.72
2023-07-18T08:56:28.031Z,4.72
2023-07-18T08:58:55.586Z,5.27
2023-07-18T09:01:22.286Z,5.50
2023-07-18T09:03:48.977Z,5.00
2023-07-18T09:06:19.782Z,4.82
2023-07-18T09:08:46.749Z,5.60
2023-07-18T09:11:13.270Z,4.73
2023-07-18T09:13:40.932Z,4.95
2023-07-18T09:16:18.261Z,4.75
2023-07-18T09:18:50.259Z,5.80
2023-07-18T09:21:17.832Z,5.95
2023-07-18T09:23:45.152Z,5.30
2023-07-18T09:26:13.738Z,4.90
2023-07-18T09:28:40.242Z,4.88
2023-07-18T09:31:36.118Z,5.40
2023-07-18T09:34:11.779Z,4.75
2023-07-18T09:36:38.247Z,4.50
2023-07-18T09:39:05.023Z,5.60
2023-07-18T09:41:32.569Z,5.72
2023-07-18T09:44:22.287Z,4.20
2023-07-18T09:46:46.564Z,5.70
2023-07-18T09:49:14.905Z,5.20
2023-07-18T09:51:47.649Z,4.60
2023-07-18T09:54:14.921Z,4.72
2023-07-18T09:56:41.668Z,5.25
2023-07-18T09:59:09.577Z,4.93
2023-07-18T10:01:36.615Z,4.90
2023-07-18T10:04:03.899Z,4.38
2023-07-18T10:06:32.960Z,4.95
2023-07-18T10:08:59.993Z,5.45
2023-07-18T10:11:26.381Z,6.50
2023-07-18T10:13:55.509Z,5.43
2023-07-18T10:16:22.975Z,4.53
2023-07-18T10:18:50.734Z,4.72
2023-07-18T10:21:34.323Z,4.10
2023-07-18T10:24:19.427Z,4.80
2023-07-18T10:26:48.013Z,5.17
2023-07-18T10:29:14.411Z,4.65
2023-07-18T10:31:41.125Z,5.97
2023-07-18T10:34:08.407Z,4.38
2023-07-18T10:36:34.876Z,6.13
2023-07-18T10:39:06.744Z,6.20
2023-07-18T10:41:33.161Z,5.80
2023-07-18T10:43:59.556Z,5.22
2023-07-18T10:46:36.021Z,6.30
2023-07-18T10:49:03.164Z,5.55
2023-07-18T10:51:33.311Z,4.47
2023-07-18T10:53:59.720Z,4.90
2023-07-18T10:56:26.668Z,5.07
2023-07-18T10:58:53.455Z,6.63
2023-07-18T11:01:21.025Z,6.47
2023-07-18T11:03:47.737Z,6.43
2023-07-18T11:06:14.337Z,5.18
2023-07-18T11:08:40.716Z,5.10
2023-07-18T11:11:07.106Z,5.18
2023-07-18T11:13:35.246Z,5.18
2023-07-18T11:16:03.805Z,5.00
2023-07-18T11:18:35.684Z,5.43
2023-07-18T11:21:06.180Z,5.03
2023-07-18T11:23:33.491Z,4.72
2023-07-18T11:25:59.903Z,5.80
2023-07-18T11:28:33.433Z,4.97
2023-07-18T11:30:59.926Z,5.40
2023-07-18T11:33:33.273Z,5.85
2023-07-18T11:35:59.735Z,6.00
2023-07-18T11:38:30.270Z,6.63
2023-07-18T11:40:56.739Z,6.50
2023-07-18T11:43:23.145Z,5.80
2023-07-18T11:45:55.756Z,4.65
2023-07-18T11:48:22.394Z,4.93
2023-07-18T11:50:49.333Z,5.57
2023-07-18T11:53:24.816Z,4.77
2023-07-18T11:55:53.833Z,5.22
2023-07-18T11:58:20.214Z,4.93
2023-07-18T12:00:46.672Z,4.65
2023-07-18T12:03:13.306Z,5.35
2023-07-18T12:05:39.778Z,4.33
2023-07-18T12:08:06.185Z,4.88
2023-07-18T12:10:32.585Z,5.68
2023-07-18T12:12:59.022Z,4.97
2023-07-18T12:15:25.489Z,5.97
2023-07-18T12:17:51.875Z,6.00
2023-07-18T12:20:18.336Z,5.28
2023-07-18T12:22:44.753Z,13.23
2023-07-18T12:25:11.140Z,5.10
2023-07-18T12:27:37.518Z,6.38
2023-07-18T12:30:04.703Z,6.37
2023-07-18T12:32:32.358Z,4.95
2023-07-18T12:34:59.185Z,6.55
2023-07-18T12:37:25.648Z,5.70
2023-07-18T12:39:52.244Z,5.15
2023-07-18T12:42:18.888Z,5.27
2023-07-18T12:44:45.482Z,4.85
2023-07-18T12:47:11.905Z,6.97
2023-07-18T12:52:07.876Z,4.63
2023-07-18T12:54:34.714Z,5.00
2023-07-18T12:57:01.171Z,4.65
2023-07-18T12:59:28.028Z,4.90
2023-07-18T13:01:55.350Z,4.65
2023-07-18T13:04:21.811Z,5.85
2023-07-18T13:06:48.232Z,4.60
2023-07-18T13:09:14.621Z,5.80
2023-07-18T13:11:41.050Z,4.93
2023-07-18T13:14:07.750Z,6.10
2023-07-18T13:16:35.236Z,6.18
2023-07-18T13:19:01.934Z,5.10
2023-07-18T13:21:28.340Z,6.15
2023-07-18T13:23:54.729Z,4.95
2023-07-18T13:26:22.537Z,6.07
2023-07-18T13:28:49.254Z,5.00
2023-07-18T13:31:15.834Z,5.50
2023-07-18T13:33:42.290Z,5.55
2023-07-18T13:36:08.717Z,4.15
2023-07-18T13:38:35.647Z,7.30
2023-07-18T13:41:03.094Z,6.25
2023-07-18T13:43:29.533Z,5.00
2023-07-18T13:45:56.013Z,6.15
2023-07-18T13:48:22.473Z,6.20
2023-07-18T13:50:48.958Z,6.22
2023-07-18T13:53:15.357Z,4.82
2023-07-18T13:55:41.744Z,8.27
2023-07-18T13:58:08.140Z,4.68
2023-07-18T14:00:34.528Z,5.55
2023-07-18T14:03:01.038Z,5.03
2023-07-18T14:05:29.631Z,6.68
2023-07-18T14:07:56.268Z,6.10
2023-07-18T14:10:22.685Z,7.00
2023-07-18T14:12:49.056Z,6.18
2023-07-18T14:15:15.436Z,6.70
2023-07-18T14:17:41.834Z,8.55
2023-07-18T14:20:08.884Z,6.73
2023-07-18T14:22:35.301Z,4.32
2023-07-18T14:25:05.553Z,5.80
2023-07-18T14:27:31.974Z,6.65
2023-07-18T14:29:58.414Z,5.97
2023-07-18T14:32:24.849Z,6.10
2023-07-18T14:34:51.302Z,5.57
2023-07-18T14:37:17.710Z,5.40
2023-07-18T14:39:44.172Z,5.15
2023-07-18T14:42:10.591Z,5.63
2023-07-18T14:44:37.248Z,7.33
2023-07-18T14:47:04.109Z,5.00
2023-07-18T14:49:30.573Z,8.60
2023-07-18T14:51:57.032Z,6.93
2023-07-18T14:54:23.535Z,6.65
2023-07-18T14:56:49.954Z,5.43
2023-07-18T14:59:16.336Z,9.68
2023-07-18T15:01:42.770Z,6.28
2023-07-18T15:04:09.192Z,6.18
2023-07-18T15:06:35.629Z,6.07
2023-07-18T15:09:02.016Z,5.93
2023-07-18T15:11:28.397Z,8.90
2023-07-18T15:13:54.971Z,5.05
2023-07-18T15:16:21.673Z,5.18
2023-07-18T15:18:50.481Z,6.10
2023-07-18T15:21:16.878Z,6.03
2023-07-18T15:23:43.278Z,5.88
2023-07-18T15:26:09.737Z,5.22
2023-07-18T15:28:36.144Z,6.28
2023-07-18T15:31:02.595Z,5.22
2023-07-18T15:33:29.077Z,5.70
2023-07-18T15:35:55.688Z,5.82
2023-07-18T15:38:22.151Z,5.15
2023-07-18T15:40:48.562Z,7.15
2023-07-18T15:43:15.018Z,6.30
2023-07-18T15:45:41.522Z,7.07
2023-07-18T15:48:08.014Z,5.70
2023-07-18T15:50:34.895Z,4.82
2023-07-18T15:53:01.390Z,4.95
2023-07-18T15:55:27.766Z,6.03
2023-07-18T15:57:54.185Z,8.07
2023-07-18T16:00:20.616Z,4.72
2023-07-18T16:02:47.046Z,5.20
2023-07-18T16:05:13.605Z,5.32
2023-07-18T16:07:40.019Z,6.05
2023-07-18T16:10:06.844Z,5.20
2023-07-18T16:12:33.253Z,5.57
2023-07-18T16:14:59.642Z,4.90
2023-07-18T16:17:26.156Z,5.53
2023-07-18T16:19:52.594Z,5.78
2023-07-18T16:22:19.368Z,6.13
2023-07-18T16:24:45.767Z,5.65
2023-07-18T16:27:12.287Z,8.40
2023-07-18T16:29:38.674Z,6.00
2023-07-18T16:32:05.700Z,5.28
2023-07-18T16:34:32.112Z,5.50
2023-07-18T16:36:58.521Z,5.28
2023-07-18T16:39:24.931Z,6.47
2023-07-18T16:41:51.317Z,5.55
2023-07-18T16:44:19.966Z,5.85
2023-07-18T16:46:47.364Z,6.10
2023-07-18T16:49:13.948Z,6.22
2023-07-18T16:51:40.413Z,6.35
2023-07-18T16:54:07.138Z,5.38
2023-07-18T16:56:35.020Z,4.93
2023-07-18T16:59:03.011Z,6.57
2023-07-18T17:01:29.435Z,5.55
2023-07-18T17:03:55.866Z,4.80
2023-07-18T17:06:22.657Z,4.35
2023-07-18T17:08:49.288Z,6.28
2023-07-18T17:11:15.759Z,5.03
2023-07-18T17:13:42.210Z,5.47
2023-07-18T17:16:08.782Z,7.22
2023-07-18T17:18:35.243Z,8.57
2023-07-18T17:21:03.538Z,6.60
2023-07-18T17:23:29.939Z,7.37
2023-07-18T17:25:57.397Z,4.70
2023-07-18T17:28:25.522Z,5.22
2023-07-18T17:30:51.932Z,6.95
2023-07-18T17:33:18.350Z,5.20
2023-07-18T17:35:45.173Z,5.73
2023-07-18T17:38:11.577Z,6.10
2023-07-18T17:40:37.968Z,4.18
2023-07-18T17:43:04.553Z,5.32
2023-07-18T17:45:31.165Z,7.60
2023-07-18T17:47:59.080Z,5.83
2023-07-18T17:50:25.770Z,6.20
2023-07-18T17:52:52.195Z,7.15
2023-07-18T17:55:18.631Z,5.20
2023-07-18T17:57:45.023Z,5.35
2023-07-18T18:00:11.818Z,6.17
2023-07-18T18:02:38.356Z,6.50
2023-07-18T18:05:37.329Z,5.15
2023-07-18T18:08:04.676Z,4.80
2023-07-18T18:10:31.141Z,5.07
2023-07-18T18:12:57.944Z,6.77
2023-07-18T18:15:24.389Z,4.82
2023-07-18T18:17:50.835Z,4.72
2023-07-18T18:20:17.277Z,4.97
2023-07-18T18:22:43.713Z,5.22
2023-07-18T18:25:10.150Z,6.80
2023-07-18T18:27:36.565Z,4.55
2023-07-18T18:30:02.986Z,4.72
2023-07-18T18:32:29.420Z,4.63
2023-07-18T18:35:05.571Z,4.35
2023-07-18T18:37:33.705Z,9.53
2023-07-18T18:40:00.158Z,9.35
2023-07-18T18:42:26.877Z,6.35
2023-07-18T18:44:53.291Z,6.85
2023-07-18T18:47:19.699Z,5.65
2023-07-18T18:49:46.111Z,5.07
2023-07-18T18:52:12.507Z,6.93
2023-07-18T18:54:38.935Z,6.07
2023-07-18T18:57:05.622Z,5.38
2023-07-18T18:59:32.053Z,5.32
2023-07-18T19:01:58.456Z,6.20
2023-07-18T19:04:24.906Z,6.53
2023-07-18T19:06:51.306Z,12.43
2023-07-18T19:09:17.733Z,5.25
2023-07-18T19:11:44.152Z,8.00
2023-07-18T19:14:10.560Z,5.33
2023-07-18T19:16:40.025Z,5.07
2023-07-18T19:19:06.866Z,6.72
2023-07-18T19:21:33.263Z,5.72
2023-07-18T19:23:59.760Z,6.22
2023-07-18T19:26:26.159Z,7.20
2023-07-18T19:28:52.600Z,6.68
2023-07-18T19:31:19.225Z,4.93
2023-07-18T19:33:45.815Z,6.30
2023-07-18T19:36:12.221Z,10.52
2023-07-18T19:38:40.465Z,7.17
2023-07-18T19:41:07.033Z,13.23
2023-07-18T19:43:33.413Z,10.05
2023-07-18T19:45:59.899Z,15.63
2023-07-18T19:48:26.335Z,9.77
2023-07-18T19:50:52.842Z,9.27
2023-07-18T19:53:19.267Z,11.13
2023-07-18T19:55:45.784Z,14.55
2023-07-18T19:58:12.234Z,13.57
2023-07-18T20:00:38.601Z,10.80
2023-07-18T20:03:05.041Z,33.23
2023-07-18T20:05:31.454Z,46.40
2023-07-18T20:07:57.872Z,29.17
2023-07-18T20:10:24.260Z,40.00
2023-07-18T20:12:50.721Z,20.38
2023-07-18T20:15:17.131Z,19.50
2023-07-18T20:17:44.630Z,22.08
2023-07-18T20:20:11.279Z,18.08
2023-07-18T20:22:38.049Z,14.82
2023-07-18T20:25:04.869Z,14.85
2023-07-18T20:27:31.240Z,9.40
2023-07-18T20:29:57.621Z,12.48
2023-07-18T20:32:24.232Z,7.28
2023-07-18T20:34:50.623Z,7.13
2023-07-18T20:37:16.992Z,8.43
2023-07-18T20:39:43.385Z,10.33
2023-07-18T20:42:09.790Z,9.35
2023-07-18T20:44:36.192Z,9.05
2023-07-18T20:47:02.767Z,8.65
2023-07-18T20:49:29.230Z,9.15
2023-07-18T20:51:55.618Z,14.07
2023-07-18T20:54:22.051Z,12.07
2023-07-18T20:56:48.417Z,12.05
2023-07-18T20:59:14.825Z,9.60
2023-07-18T21:01:41.246Z,12.32
2023-07-18T21:04:07.704Z,11.17
2023-07-18T21:06:34.140Z,5.70
2023-07-18T21:09:00.580Z,7.43
2023-07-18T21:11:27.007Z,7.35
2023-07-18T21:13:54.475Z,10.95
2023-07-18T21:16:20.892Z,8.30
2023-07-18T21:18:47.328Z,7.72
2023-07-18T21:21:13.752Z,11.00
2023-07-18T21:23:40.184Z,12.45
2023-07-18T21:26:06.702Z,9.25
2023-07-18T21:28:33.087Z,5.93
2023-07-18T21:30:59.526Z,6.75
2023-07-18T21:33:26.015Z,5.32
2023-07-18T21:35:52.418Z,7.00
2023-07-18T21:38:19.362Z,7.25
2023-07-18T21:40:45.727Z,6.90
2023-07-18T21:43:12.119Z,9.35
2023-07-18T21:45:38.612Z,5.80
2023-07-18T21:48:05.297Z,7.65
2023-07-18T21:50:31.734Z,9.23
2023-07-18T21:52:58.202Z,14.50
2023-07-18T21:55:24.634Z,8.45
2023-07-18T21:57:51.029Z,6.97
2023-07-18T22:00:17.432Z,8.05
2023-07-18T22:02:43.917Z,7.32
2023-07-18T22:05:10.400Z,7.43
2023-07-18T22:07:36.869Z,9.13
2023-07-18T22:10:04.125Z,7.57
2023-07-18T22:12:30.649Z,7.05
2023-07-18T22:14:57.397Z,8.95
2023-07-18T22:17:23.920Z,7.23
2023-07-18T22:19:50.343Z,5.70
2023-07-18T22:22:16.738Z,5.22
2023-07-18T22:24:43.119Z,9.35
2023-07-18T22:27:09.608Z,6.50
2023-07-18T22:29:36.041Z,6.77
2023-07-18T22:32:02.458Z,7.25
2023-07-18T22:34:28.839Z,7.28
2023-07-18T22:36:55.278Z,6.68
2023-07-18T22:39:34.708Z,5.97
2023-07-18T22:42:19.178Z,6.17
2023-07-18T22:44:46.428Z,7.75
2023-07-18T22:47:13.436Z,5.43
2023-07-18T22:49:40.370Z,6.32
2023-07-18T22:52:11.551Z,6.85
2023-07-18T22:54:37.948Z,7.23
2023-07-18T22:57:04.717Z,5.63
2023-07-18T22:59:31.255Z,5.88
2023-07-18T23:01:57.742Z,6.43
2023-07-18T23:04:24.246Z,5.43
2023-07-18T23:06:50.610Z,7.53
2023-07-18T23:09:16.991Z,6.88
2023-07-18T23:11:43.360Z,7.07
2023-07-18T23:14:09.780Z,7.38
2023-07-18T23:16:36.219Z,8.35
2023-07-18T23:19:03.703Z,7.10
2023-07-18T23:21:30.208Z,7.43
2023-07-18T23:23:56.612Z,9.20
2023-07-18T23:26:23.144Z,6.43
2023-07-18T23:28:49.585Z,5.93
2023-07-18T23:31:17.107Z,5.40
2023-07-18T23:33:44.654Z,5.95
2023-07-18T23:36:11.088Z,6.47
2023-07-18T23:38:37.467Z,7.90
2023-07-18T23:41:03.869Z,5.75
2023-07-18T23:43:30.275Z,5.97
2023-07-18T23:45:56.975Z,6.57
2023-07-18T23:48:26.262Z,6.70
2023-07-18T23:50:52.795Z,9.57
2023-07-18T23:53:19.215Z,8.40
2023-07-18T23:55:45.917Z,7.27
2023-07-18T23:58:12.644Z,6.30
